Time;durP1;ratioP1;P1;durP2;ratioP2;P2;SDS_P1;SDS_P2;PMS_P1;PMS_P2;Temp;Humidity;BMP_temperature;BMP_pressure;BME280_temperature;BME280_humidity;BME280_pressure;Samples;Min_cycle;Max_cycle;Signal;HPM_P1;HPM_P2
2022/02/07 00:00:44;;;;;;;;;;;;;;;;;;5091253;28;19946;-64
2022/02/07 00:03:30;;;;;;;;;;;;;;;;;;5093410;28;19931;-64
2022/02/07 00:05:57;;;;;;;;;;;;;;;;;;5087086;28;19924;-64
2022/02/07 00:08:24;;;;;;;;;;;;;;;;;;5084812;28;19924;-65
2022/02/07 00:10:51;;;;;;;;;;;;;;;;;;5086376;28;20356;-64
2022/02/07 00:13:18;;;;;;;;;;;;;;;;;;5088588;28;19928;-64
2022/02/07 00:15:45;;;;;;;;;;;;;;;;;;5092165;28;19924;-65
2022/02/07 00:18:13;;;;;;;;;;;;;;;;;;5092410;28;19931;-65
2022/02/07 00:20:40;;;;;;;;;;;;;;;;;;5092424;28;19931;-65
2022/02/07 00:23:08;;;;;;;;;;;;;;;;;;5092152;28;19928;-65
2022/02/07 00:25:35;;;;;;;;;;;;;;;;;;5092257;28;20304;-64
2022/02/07 00:28:02;;;;;;;;;;;;;;;;;;5091965;28;20293;-64
2022/02/07 00:30:29;;;;;;;;;;;;;;;;;;5093709;28;19924;-64
2022/02/07 00:32:56;;;;;;;;;;;;;;;;;;5092135;28;21120;-65
2022/02/07 00:35:24;;;;;;;;;;;;;;;;;;5091020;28;19932;-65
2022/02/07 00:37:51;;;;;;;;;;;;;;;;;;5091159;28;20359;-64
2022/02/07 00:43:25;;;;;;;;;;;;;;;;;;5069888;28;19969;-64
2022/02/07 00:45:55;;;;;;;;;;;;;;;;;;5089333;28;19924;-64
2022/02/07 00:48:23;;;;;;;;;;;;;;;;;;5090670;28;19928;-64
2022/02/07 00:50:50;;;;;;;;;;;;;;;;;;5088830;28;19970;-64
2022/02/07 00:53:17;;;;;;;;;;;;;;;;;;5091814;28;19932;-64
2022/02/07 00:55:44;;;;;;;;;;;;;;;;;;5090317;28;19942;-64
2022/02/07 00:58:12;;;;;;;;;;;;;;;;;;5092733;28;19935;-65
2022/02/07 01:00:39;;;;;;;;;;;;;;;;;;5088960;28;19993;-65
2022/02/07 01:03:06;;;;;;;;;;;;;;;;;;5092081;28;19924;-64
2022/02/07 01:05:33;;;;;;;;;;;;;;;;;;5091005;28;19931;-63
2022/02/07 01:08:02;;;;;;;;;;;;;;;;;;5085795;28;19932;-64
2022/02/07 01:10:37;;;;;;;;;;;;;;;;;;5091013;28;19924;-64
2022/02/07 01:13:12;;;;;;;;;;;;;;;;;;5089088;28;19928;-64
2022/02/07 01:15:48;;;;;;;;;;;;;;;;;;5084915;28;19924;-64
2022/02/07 01:18:46;;;;;;;;;;;;;;;;;;5090127;28;20009;-64
2022/02/07 01:21:40;;;;;;;;;;;;;;;;;;5090227;28;20049;-64
2022/02/07 01:49:05;;;;;;;;;;;;;;;;;;5041528;28;19921;-65
2022/02/07 01:51:52;;;;;;;;;;;;;;;;;;5044347;28;20371;-65
2022/02/07 01:54:27;;;;;;;;;;;;;;;;;;5042991;28;19947;-65
2022/02/07 01:56:54;;;;;;;;;;;;;;;;;;5037162;28;19925;-65
2022/02/07 01:59:21;;;;;;;;;;;;;;;;;;5034788;28;20387;-65
2022/02/07 02:01:48;;;;;;;;;;;;;;;;;;5029704;28;20017;-65
2022/02/07 02:04:15;;;;;;;;;;;;;;;;;;5024629;28;19932;-66
2022/02/07 02:06:42;;;;;;;;;;;;;;;;;;5028021;28;19925;-65
2022/02/07 02:09:10;;;;;;;;;;;;;;;;;;5024796;28;19929;-65
2022/02/07 02:11:40;;;;;;;;;;;;;;;;;;5033624;28;20468;-65
2022/02/07 02:14:32;;;;;;;;;;;;;;;;;;5023828;28;19929;-65
2022/02/07 02:17:17;;;;;;;;;;;;;;;;;;5029460;28;19932;-65
2022/02/07 02:23:06;;;;;;;;;;;;;;;;;;5020059;28;20373;-66
2022/02/07 02:36:36;;;;;;;;;;;;;;;;;;5020930;28;20371;-65
2022/02/07 02:47:35;;;;;;;;;;;;;;;;;;5014033;28;19924;-63
2022/02/07 02:50:06;;;;;;;;;;;;;;;;;;5026304;28;20004;-64
2022/02/07 02:52:33;;;;;;;;;;;;;;;;;;5024682;28;19936;-63
2022/02/07 02:55:00;;;;;;;;;;;;;;;;;;5021341;28;19932;-63
2022/02/07 02:57:27;;;;;;;;;;;;;;;;;;5021428;28;19925;-64
2022/02/07 02:59:54;;;;;;;;;;;;;;;;;;5032612;28;19925;-64
2022/02/07 03:02:21;;;;;;;;;;;;;;;;;;5022243;28;19925;-63
2022/02/07 03:04:48;;;;;;;;;;;;;;;;;;5026729;28;19932;-64
2022/02/07 03:07:15;;;;;;;;;;;;;;;;;;5024332;28;20007;-64
2022/02/07 03:09:48;;;;;;;;;;;;;;;;;;5027653;28;19929;-64
2022/02/07 03:12:15;;;;;;;;;;;;;;;;;;5019602;28;19925;-64
2022/02/07 03:14:45;;;;;;;;;;;;;;;;;;5021151;28;19933;-64
2022/02/07 03:17:11;;;;;;;;;;;;;;;;;;5023057;28;19925;-64
2022/02/07 03:19:38;;;;;;;;;;;;;;;;;;5035987;28;19978;-64
2022/02/07 03:22:05;;;;;;;;;;;;;;;;;;5032245;28;19933;-64
2022/02/07 03:24:32;;;;;;;;;;;;;;;;;;5026123;28;19934;-64
2022/02/07 03:26:59;;;;;;;;;;;;;;;;;;5023889;28;19929;-64
2022/02/07 03:29:26;;;;;;;;;;;;;;;;;;5038052;28;19925;-64
2022/02/07 03:31:53;;;;;;;;;;;;;;;;;;5029341;28;20327;-63
2022/02/07 03:34:19;;;;;;;;;;;;;;;;;;5027870;28;20165;-64
2022/02/07 03:36:46;;;;;;;;;;;;;;;;;;5030392;28;19925;-64
2022/02/07 03:39:13;;;;;;;;;;;;;;;;;;5031324;28;19925;-64
2022/02/07 03:41:40;;;;;;;;;;;;;;;;;;5030384;28;19932;-64
2022/02/07 03:44:07;;;;;;;;;;;;;;;;;;5027740;28;20003;-64
2022/02/07 03:46:34;;;;;;;;;;;;;;;;;;5032758;28;19925;-64
2022/02/07 03:49:01;;;;;;;;;;;;;;;;;;5029931;28;20414;-63
2022/02/07 03:51:28;;;;;;;;;;;;;;;;;;5033912;28;19925;-64
2022/02/07 03:53:55;;;;;;;;;;;;;;;;;;5032585;28;19925;-64
2022/02/07 03:56:22;;;;;;;;;;;;;;;;;;5022381;28;19929;-64
2022/02/07 03:58:49;;;;;;;;;;;;;;;;;;5023351;28;19933;-64
2022/02/07 04:01:18;;;;;;;;;;;;;;;;;;5035508;28;20016;-64
2022/02/07 04:03:46;;;;;;;;;;;;;;;;;;5025776;28;19926;-64
2022/02/07 04:06:16;;;;;;;;;;;;;;;;;;5026386;28;20295;-64
2022/02/07 04:08:45;;;;;;;;;;;;;;;;;;5023472;28;20426;-64
2022/02/07 04:11:19;;;;;;;;;;;;;;;;;;5024180;28;19926;-64
2022/02/07 04:13:50;;;;;;;;;;;;;;;;;;5018126;28;20303;-64
2022/02/07 04:16:18;;;;;;;;;;;;;;;;;;5029659;28;19930;-64
2022/02/07 04:18:55;;;;;;;;;;;;;;;;;;5035935;28;19974;-64
2022/02/07 04:21:22;;;;;;;;;;;;;;;;;;5029819;28;19933;-64
2022/02/07 04:23:49;;;;;;;;;;;;;;;;;;5034215;28;19972;-64
2022/02/07 04:26:16;;;;;;;;;;;;;;;;;;5028478;28;19929;-63
2022/02/07 04:28:43;;;;;;;;;;;;;;;;;;5028451;28;19931;-63
2022/02/07 04:31:10;;;;;;;;;;;;;;;;;;5031617;28;19932;-64
2022/02/07 04:33:37;;;;;;;;;;;;;;;;;;5028072;28;19930;-65
2022/02/07 04:36:04;;;;;;;;;;;;;;;;;;5031490;28;19932;-64
2022/02/07 04:38:31;;;;;;;;;;;;;;;;;;5025889;28;19926;-63
2022/02/07 04:40:57;;;;;;;;;;;;;;;;;;5021877;28;19932;-64
2022/02/07 04:43:24;;;;;;;;;;;;;;;;;;5031994;28;19929;-63
2022/02/07 04:46:02;;;;;;;;;;;;;;;;;;5030924;28;19933;-64
2022/02/07 04:51:43;;;;;;;;;;;;;;;;;;5029177;28;19926;-63
2022/02/07 04:54:19;;;;;;;;;;;;;;;;;;5036752;28;19971;-63
2022/02/07 04:59:42;;;;;;;;;;;;;;;;;;5028349;28;19963;-64
2022/02/07 05:02:15;;;;;;;;;;;;;;;;;;5023056;28;20438;-64
2022/02/07 05:04:48;;;;;;;;;;;;;;;;;;5030742;28;19929;-64
2022/02/07 05:15:30;;;;;;;;;;;;;;;;;;5038432;28;19935;-65
2022/02/07 05:17:58;;;;;;;;;;;;;;;;;;5035167;28;20022;-65
2022/02/07 05:20:25;;;;;;;;;;;;;;;;;;5022389;28;20414;-65
2022/02/07 05:22:52;;;;;;;;;;;;;;;;;;5027623;28;19925;-65
2022/02/07 05:25:19;;;;;;;;;;;;;;;;;;5034774;28;19925;-65
2022/02/07 05:27:46;;;;;;;;;;;;;;;;;;5036502;28;20395;-65
2022/02/07 05:30:13;;;;;;;;;;;;;;;;;;5023999;28;20582;-65
2022/02/07 05:32:40;;;;;;;;;;;;;;;;;;5028050;28;19925;-65
2022/02/07 05:35:08;;;;;;;;;;;;;;;;;;5028177;28;20036;-65
2022/02/07 05:37:35;;;;;;;;;;;;;;;;;;5030562;28;19925;-64
2022/02/07 05:40:08;;;;;;;;;;;;;;;;;;5027975;28;20471;-64
2022/02/07 05:42:37;;;;;;;;;;;;;;;;;;5024361;28;19925;-64
2022/02/07 05:45:05;;;;;;;;;;;;;;;;;;5023842;28;19943;-64
2022/02/07 05:47:32;;;;;;;;;;;;;;;;;;5032423;28;19935;-64
2022/02/07 05:49:59;;;;;;;;;;;;;;;;;;5020540;28;20391;-64
2022/02/07 05:52:26;;;;;;;;;;;;;;;;;;5023275;28;19932;-64
2022/02/07 05:54:53;;;;;;;;;;;;;;;;;;5028896;28;19929;-64
2022/02/07 05:57:20;;;;;;;;;;;;;;;;;;5027987;28;19925;-64
2022/02/07 05:59:47;;;;;;;;;;;;;;;;;;5022438;28;19936;-64
2022/02/07 06:02:14;;;;;;;;;;;;;;;;;;5020909;28;19925;-64
2022/02/07 06:04:41;;;;;;;;;;;;;;;;;;5025261;28;19929;-63
2022/02/07 06:07:08;;;;;;;;;;;;;;;;;;5025590;28;20019;-64
2022/02/07 06:09:35;;;;;;;;;;;;;;;;;;5022851;28;19933;-63
2022/02/07 06:12:02;;;;;;;;;;;;;;;;;;5019166;28;20402;-63
2022/02/07 06:14:29;;;;;;;;;;;;;;;;;;5022983;28;20391;-64
2022/02/07 06:16:55;;;;;;;;;;;;;;;;;;5020449;28;19932;-63
2022/02/07 06:19:22;;;;;;;;;;;;;;;;;;5024429;28;19933;-63
2022/02/07 06:21:52;;;;;;;;;;;;;;;;;;5021245;28;20361;-64
2022/02/07 06:24:24;;;;;;;;;;;;;;;;;;5024369;28;19933;-64
2022/02/07 06:26:51;;;;;;;;;;;;;;;;;;5012495;28;19941;-63
2022/02/07 06:29:17;;;;;;;;;;;;;;;;;;4999784;28;19940;-64
2022/02/07 06:31:44;;;;;;;;;;;;;;;;;;5015570;28;19926;-64
2022/02/07 06:34:11;;;;;;;;;;;;;;;;;;5023247;28;19925;-63
2022/02/07 06:36:38;;;;;;;;;;;;;;;;;;5014794;28;19925;-63
2022/02/07 06:39:05;;;;;;;;;;;;;;;;;;5024239;28;19932;-63
2022/02/07 06:41:32;;;;;;;;;;;;;;;;;;5025465;28;19960;-63
2022/02/07 06:43:59;;;;;;;;;;;;;;;;;;5026233;28;19926;-64
2022/02/07 06:46:26;;;;;;;;;;;;;;;;;;5025129;28;19924;-63
2022/02/07 06:48:53;;;;;;;;;;;;;;;;;;5021783;28;19936;-63
2022/02/07 06:51:20;;;;;;;;;;;;;;;;;;5030100;28;19932;-64
2022/02/07 06:53:49;;;;;;;;;;;;;;;;;;5023990;28;19924;-64
2022/02/07 06:56:15;;;;;;;;;;;;;;;;;;5021930;28;19925;-64
2022/02/07 06:58:42;;;;;;;;;;;;;;;;;;5021860;28;19929;-64
2022/02/07 07:01:09;;;;;;;;;;;;;;;;;;5022327;28;19926;-64
2022/02/07 07:03:38;;;;;;;;;;;;;;;;;;5023289;28;19928;-64
2022/02/07 07:06:05;;;;;;;;;;;;;;;;;;5020590;28;20280;-64
2022/02/07 07:08:36;;;;;;;;;;;;;;;;;;5026137;28;19932;-64
2022/02/07 07:11:03;;;;;;;;;;;;;;;;;;5032533;28;19925;-63
2022/02/07 07:13:39;;;;;;;;;;;;;;;;;;5032376;28;19929;-64
2022/02/07 07:16:26;;;;;;;;;;;;;;;;;;5022765;28;19925;-64
2022/02/07 07:18:53;;;;;;;;;;;;;;;;;;5020010;28;19930;-64
2022/02/07 07:21:19;;;;;;;;;;;;;;;;;;5030795;28;19932;-64
2022/02/07 07:23:46;;;;;;;;;;;;;;;;;;5024739;28;19926;-64
2022/02/07 07:26:13;;;;;;;;;;;;;;;;;;5037869;28;19948;-64
2022/02/07 07:28:41;;;;;;;;;;;;;;;;;;5027169;28;20012;-64
2022/02/07 07:31:11;;;;;;;;;;;;;;;;;;5026443;28;20004;-64
2022/02/07 07:33:39;;;;;;;;;;;;;;;;;;5034874;28;19924;-64
2022/02/07 07:36:06;;;;;;;;;;;;;;;;;;5023809;28;19929;-64
2022/02/07 07:38:33;;;;;;;;;;;;;;;;;;5015223;28;20019;-63
2022/02/07 07:41:00;;;;;;;;;;;;;;;;;;5029618;28;20386;-64
2022/02/07 07:43:27;;;;;;;;;;;;;;;;;;5031041;28;20302;-64
2022/02/07 07:48:31;;;;;;;;;;;;;;;;;;5064244;22;19924;-65
2022/02/07 07:51:05;;;;;;;;;;;;;;;;;;5047310;28;19925;-65
2022/02/07 07:53:45;;;;;;;;;;;;;;;;;;5049795;28;19925;-64
2022/02/07 08:01:48;;;;;;;;;;;;;;;;;;5018689;28;19979;-65
2022/02/07 08:04:17;;;;;;;;;;;;;;;;;;5007081;28;19984;-64
2022/02/07 08:06:50;;;;;;;;;;;;;;;;;;5012870;28;19933;-64
2022/02/07 08:09:44;;;;;;;;;;;;;;;;;;5012870;28;19930;-64
2022/02/07 08:12:13;;;;;;;;;;;;;;;;;;5025518;28;19925;-64
2022/02/07 08:14:42;;;;;;;;;;;;;;;;;;5020619;28;19971;-64
2022/02/07 08:17:09;;;;;;;;;;;;;;;;;;5028775;28;19933;-64
2022/02/07 08:19:41;;;;;;;;;;;;;;;;;;5016216;28;19933;-64
2022/02/07 08:22:09;;;;;;;;;;;;;;;;;;5026109;28;20395;-64
2022/02/07 08:24:36;;;;;;;;;;;;;;;;;;5020179;28;20020;-65
2022/02/07 08:27:04;;;;;;;;;;;;;;;;;;5022942;28;20302;-64
2022/02/07 08:29:31;;;;;;;;;;;;;;;;;;5028244;28;19974;-64
2022/02/07 08:31:58;;;;;;;;;;;;;;;;;;5016514;28;19929;-65
2022/02/07 08:34:25;;;;;;;;;;;;;;;;;;5024468;28;20279;-63
2022/02/07 08:36:53;;;;;;;;;;;;;;;;;;5019552;28;19925;-64
2022/02/07 08:39:20;;;;;;;;;;;;;;;;;;5018204;28;20375;-64
2022/02/07 08:41:47;;;;;;;;;;;;;;;;;;5026728;28;19925;-64
2022/02/07 08:44:13;;;;;;;;;;;;;;;;;;5023223;28;19926;-64
2022/02/07 08:46:40;;;;;;;;;;;;;;;;;;5019075;28;19936;-65
2022/02/07 08:49:07;;;;;;;;;;;;;;;;;;5022354;28;20394;-64
2022/02/07 08:51:35;;;;;;;;;;;;;;;;;;5024121;28;19925;-64
2022/02/07 08:54:04;;;;;;;;;;;;;;;;;;5025325;28;19932;-64
2022/02/07 08:56:42;;;;;;;;;;;;;;;;;;5029650;28;20362;-64
2022/02/07 08:59:09;;;;;;;;;;;;;;;;;;5019409;28;19925;-64
2022/02/07 09:01:49;;;;;;;;;;;;;;;;;;5022243;28;20283;-64
2022/02/07 09:04:43;;;;;;;;;;;;;;;;;;5019975;28;19936;-64
2022/02/07 09:07:14;;;;;;;;;;;;;;;;;;5017091;28;19925;-64
2022/02/07 09:09:43;;;;;;;;;;;;;;;;;;5025904;28;19964;-64
2022/02/07 09:12:10;;;;;;;;;;;;;;;;;;5018359;28;19944;-64
2022/02/07 09:14:43;;;;;;;;;;;;;;;;;;5027717;28;19986;-64
2022/02/07 09:17:10;;;;;;;;;;;;;;;;;;5029034;28;19925;-64
2022/02/07 09:19:37;;;;;;;;;;;;;;;;;;5021041;28;20213;-64
2022/02/07 09:22:04;;;;;;;;;;;;;;;;;;5020902;28;20318;-64
2022/02/07 09:24:31;;;;;;;;;;;;;;;;;;5024557;28;19929;-64
2022/02/07 09:26:58;;;;;;;;;;;;;;;;;;5024636;28;19925;-64
2022/02/07 09:29:26;;;;;;;;;;;;;;;;;;5025969;28;19952;-64
2022/02/07 09:31:53;;;;;;;;;;;;;;;;;;5021365;28;20413;-64
2022/02/07 09:34:20;;;;;;;;;;;;;;;;;;5019769;28;20306;-64
2022/02/07 09:36:51;;;;;;;;;;;;;;;;;;5029360;28;19925;-64
2022/02/07 09:39:18;;;;;;;;;;;;;;;;;;5021146;28;19931;-65
2022/02/07 09:41:48;;;;;;;;;;;;;;;;;;5019867;28;19933;-65
2022/02/07 09:44:15;;;;;;;;;;;;;;;;;;5024904;28;20272;-64
2022/02/07 09:46:44;;;;;;;;;;;;;;;;;;5024182;28;20004;-65
2022/02/07 09:49:11;;;;;;;;;;;;;;;;;;5022669;28;19925;-65
2022/02/07 09:51:38;;;;;;;;;;;;;;;;;;5024549;28;19955;-65
2022/02/07 09:54:05;;;;;;;;;;;;;;;;;;5026374;28;20274;-65
2022/02/07 09:56:32;;;;;;;;;;;;;;;;;;5026676;28;19937;-64
2022/02/07 09:58:59;;;;;;;;;;;;;;;;;;5021968;28;19925;-64
2022/02/07 10:01:29;;;;;;;;;;;;;;;;;;5026226;28;19932;-65
2022/02/07 10:04:02;;;;;;;;;;;;;;;;;;5024317;28;19930;-64
2022/02/07 10:06:39;;;;;;;;;;;;;;;;;;5025442;28;19926;-64
2022/02/07 10:09:16;;;;;;;;;;;;;;;;;;5027759;28;19928;-66
2022/02/07 10:11:54;;;;;;;;;;;;;;;;;;5021202;28;19956;-64
2022/02/07 10:14:26;;;;;;;;;;;;;;;;;;5026712;28;19937;-64
2022/02/07 10:17:04;;;;;;;;;;;;;;;;;;5022770;28;19932;-64
2022/02/07 10:19:43;;;;;;;;;;;;;;;;;;5026266;28;19960;-65
2022/02/07 10:23:07;;;;;;;;;;;;;;;;;;5018162;28;20438;-65
2022/02/07 10:37:22;;;;;;;;;;;;;;;;;;5020764;28;19928;-64
2022/02/07 10:39:38;;;;;;;;;;;;;;;;;;5027775;28;19978;-64
2022/02/07 10:42:33;;;;;;;;;;;;;;;;;;5022488;28;20288;-64
2022/02/07 10:45:03;;;;;;;;;;;;;;;;;;5020561;28;19987;-64
2022/02/07 10:47:32;;;;;;;;;;;;;;;;;;5020318;28;20434;-65
2022/02/07 10:49:59;;;;;;;;;;;;;;;;;;5009829;28;19925;-64
2022/02/07 10:52:26;;;;;;;;;;;;;;;;;;5024573;28;19925;-65
2022/02/07 10:54:53;;;;;;;;;;;;;;;;;;5019567;28;20409;-64
2022/02/07 10:57:20;;;;;;;;;;;;;;;;;;5022837;28;19943;-64
2022/02/07 10:59:47;;;;;;;;;;;;;;;;;;5020403;28;19925;-65
2022/02/07 11:05:05;;;;;;;;;;;;;;;;;;5019940;28;19920;-65
2022/02/07 11:07:32;;;;;;;;;;;;;;;;;;5017797;28;19979;-65
2022/02/07 11:10:18;;;;;;;;;;;;;;;;;;5022566;28;19929;-64
2022/02/07 11:13:15;;;;;;;;;;;;;;;;;;5021656;28;20391;-64
2022/02/07 11:15:48;;;;;;;;;;;;;;;;;;5017001;28;20543;-64
2022/02/07 11:18:35;;;;;;;;;;;;;;;;;;5022599;28;19929;-64
2022/02/07 11:21:06;;;;;;;;;;;;;;;;;;5027805;28;19925;-64
2022/02/07 11:23:46;;;;;;;;;;;;;;;;;;5020558;28;19955;-65
2022/02/07 11:26:16;;;;;;;;;;;;;;;;;;5017497;28;20318;-64
2022/02/07 11:28:43;;;;;;;;;;;;;;;;;;5015616;28;20391;-64
2022/02/07 11:31:10;;;;;;;;;;;;;;;;;;5017458;28;19925;-65
2022/02/07 11:33:38;;;;;;;;;;;;;;;;;;5017955;28;19941;-64
2022/02/07 11:36:05;;;;;;;;;;;;;;;;;;5018445;28;19926;-65
2022/02/07 11:38:32;;;;;;;;;;;;;;;;;;5014844;28;20300;-65
2022/02/07 11:40:59;;;;;;;;;;;;;;;;;;5016090;28;19935;-65
2022/02/07 11:43:26;;;;;;;;;;;;;;;;;;5018195;28;19925;-65
2022/02/07 11:45:53;;;;;;;;;;;;;;;;;;5018387;28;19925;-65
2022/02/07 11:48:21;;;;;;;;;;;;;;;;;;5012374;28;19925;-65
2022/02/07 11:50:48;;;;;;;;;;;;;;;;;;5026975;28;19929;-65
2022/02/07 11:53:16;;;;;;;;;;;;;;;;;;5026045;28;20280;-64
2022/02/07 11:55:44;;;;;;;;;;;;;;;;;;5029198;28;19932;-65
2022/02/07 11:58:15;;;;;;;;;;;;;;;;;;5024609;28;19929;-64
2022/02/07 12:00:47;;;;;;;;;;;;;;;;;;5034212;28;19980;-64
2022/02/07 12:03:14;;;;;;;;;;;;;;;;;;5030032;28;20357;-64
2022/02/07 12:05:41;;;;;;;;;;;;;;;;;;5020382;28;20383;-64
2022/02/07 12:08:08;;;;;;;;;;;;;;;;;;5021190;28;20073;-64
2022/02/07 12:10:39;;;;;;;;;;;;;;;;;;5035330;28;20016;-64
2022/02/07 12:13:08;;;;;;;;;;;;;;;;;;5020935;28;20316;-64
2022/02/07 12:15:38;;;;;;;;;;;;;;;;;;5021623;28;19925;-64
2022/02/07 12:18:04;;;;;;;;;;;;;;;;;;5021321;28;19957;-65
2022/02/07 12:20:31;;;;;;;;;;;;;;;;;;5018324;28;20101;-65
2022/02/07 12:22:58;;;;;;;;;;;;;;;;;;5017112;28;20410;-64
2022/02/07 12:25:26;;;;;;;;;;;;;;;;;;5018769;28;19925;-65
2022/02/07 12:27:53;;;;;;;;;;;;;;;;;;5025593;28;20524;-64
2022/02/07 12:30:30;;;;;;;;;;;;;;;;;;5019097;28;20010;-63
2022/02/07 12:32:57;;;;;;;;;;;;;;;;;;5016311;28;20667;-64
2022/02/07 12:35:24;;;;;;;;;;;;;;;;;;5016658;28;19929;-64
2022/02/07 12:37:51;;;;;;;;;;;;;;;;;;5023527;28;20291;-64
2022/02/07 12:40:18;;;;;;;;;;;;;;;;;;5021577;28;19940;-64
2022/02/07 12:42:45;;;;;;;;;;;;;;;;;;5020254;28;19929;-64
2022/02/07 12:45:12;;;;;;;;;;;;;;;;;;5011673;28;19930;-65
2022/02/07 12:47:40;;;;;;;;;;;;;;;;;;5018088;28;19933;-65
2022/02/07 12:50:07;;;;;;;;;;;;;;;;;;5020454;28;19925;-65
2022/02/07 12:52:34;;;;;;;;;;;;;;;;;;5018304;28;19940;-65
2022/02/07 12:55:01;;;;;;;;;;;;;;;;;;5017360;28;20152;-65
2022/02/07 12:57:28;;;;;;;;;;;;;;;;;;5018138;28;19933;-64
2022/02/07 12:59:55;;;;;;;;;;;;;;;;;;5016806;28;19948;-64
2022/02/07 13:02:22;;;;;;;;;;;;;;;;;;5017080;28;19932;-64
2022/02/07 13:04:51;;;;;;;;;;;;;;;;;;5018025;28;20397;-64
2022/02/07 13:07:20;;;;;;;;;;;;;;;;;;5023991;28;19936;-64
2022/02/07 13:09:51;;;;;;;;;;;;;;;;;;5016609;28;20016;-64
2022/02/07 13:12:31;;;;;;;;;;;;;;;;;;5020967;28;19979;-64
2022/02/07 13:14:59;;;;;;;;;;;;;;;;;;5016627;28;20296;-63
2022/02/07 13:17:27;;;;;;;;;;;;;;;;;;5018684;28;19929;-65
2022/02/07 13:19:54;;;;;;;;;;;;;;;;;;5015470;28;20272;-64
2022/02/07 13:22:23;;;;;;;;;;;;;;;;;;5018447;28;19933;-64
2022/02/07 13:24:50;;;;;;;;;;;;;;;;;;5020083;28;20108;-64
2022/02/07 13:27:17;;;;;;;;;;;;;;;;;;5019953;28;19995;-65
2022/02/07 13:29:45;;;;;;;;;;;;;;;;;;5016253;28;19925;-64
2022/02/07 13:32:12;;;;;;;;;;;;;;;;;;5010366;28;19933;-64
2022/02/07 13:34:39;;;;;;;;;;;;;;;;;;5007881;28;19934;-64
2022/02/07 13:37:07;;;;;;;;;;;;;;;;;;5009674;28;19937;-64
2022/02/07 13:39:33;;;;;;;;;;;;;;;;;;5017822;28;19926;-64
2022/02/07 13:42:00;;;;;;;;;;;;;;;;;;5021158;28;19948;-65
2022/02/07 13:44:27;;;;;;;;;;;;;;;;;;5014164;28;19925;-64
2022/02/07 13:46:54;;;;;;;;;;;;;;;;;;5060878;22;20282;-67
2022/02/07 13:49:21;;;;;;;;;;;;;;;;;;5087343;28;20401;-66
2022/02/07 13:51:48;;;;;;;;;;;;;;;;;;5086877;28;20305;-67
2022/02/07 13:54:15;;;;;;;;;;;;;;;;;;5087366;28;19964;-67
2022/02/07 13:56:43;;;;;;;;;;;;;;;;;;5084601;28;19924;-67
2022/02/07 13:59:10;;;;;;;;;;;;;;;;;;5082454;28;19925;-67
2022/02/07 14:01:37;;;;;;;;;;;;;;;;;;5085985;28;19935;-67
2022/02/07 14:04:05;;;;;;;;;;;;;;;;;;5084649;28;19924;-67
2022/02/07 14:06:33;;;;;;;;;;;;;;;;;;5085233;28;19924;-67
2022/02/07 14:09:00;;;;;;;;;;;;;;;;;;5081545;28;19938;-66
2022/02/07 14:11:27;;;;;;;;;;;;;;;;;;5084788;28;20301;-65
2022/02/07 14:13:54;;;;;;;;;;;;;;;;;;5085915;28;20228;-66
2022/02/07 14:16:23;;;;;;;;;;;;;;;;;;5083644;28;20288;-66
2022/02/07 14:18:50;;;;;;;;;;;;;;;;;;5081102;28;19939;-66
2022/02/07 14:21:17;;;;;;;;;;;;;;;;;;5084509;28;19928;-67
2022/02/07 14:23:44;;;;;;;;;;;;;;;;;;5080914;28;20466;-67
2022/02/07 14:26:15;;;;;;;;;;;;;;;;;;5084844;28;19924;-67
2022/02/07 14:28:42;;;;;;;;;;;;;;;;;;5083088;28;20069;-67
2022/02/07 14:31:11;;;;;;;;;;;;;;;;;;5084872;28;20314;-67
2022/02/07 14:33:38;;;;;;;;;;;;;;;;;;5086379;28;20020;-66
2022/02/07 14:36:08;;;;;;;;;;;;;;;;;;5083291;28;19928;-67
2022/02/07 14:38:34;;;;;;;;;;;;;;;;;;5085000;28;19924;-66
2022/02/07 14:41:01;;;;;;;;;;;;;;;;;;5085939;28;19959;-67
2022/02/07 14:43:30;;;;;;;;;;;;;;;;;;5082974;28;20015;-66
2022/02/07 14:46:07;;;;;;;;;;;;;;;;;;5076341;28;20997;-66
2022/02/07 14:48:34;;;;;;;;;;;;;;;;;;5079425;28;19935;-66
2022/02/07 14:51:02;;;;;;;;;;;;;;;;;;5084148;28;19925;-66
2022/02/07 14:53:29;;;;;;;;;;;;;;;;;;5085431;28;19932;-66
2022/02/07 14:55:56;;;;;;;;;;;;;;;;;;5069664;28;19947;-65
2022/02/07 14:58:23;;;;;;;;;;;;;;;;;;5075806;28;19963;-66
2022/02/07 15:00:52;;;;;;;;;;;;;;;;;;5081019;28;19935;-67
2022/02/07 15:03:20;;;;;;;;;;;;;;;;;;5079113;28;19930;-66
2022/02/07 15:05:47;;;;;;;;;;;;;;;;;;5082196;28;19924;-66
2022/02/07 15:08:14;;;;;;;;;;;;;;;;;;5084413;28;20314;-66
2022/02/07 15:10:41;;;;;;;;;;;;;;;;;;5075852;28;19982;-66
2022/02/07 15:13:09;;;;;;;;;;;;;;;;;;5078721;28;19933;-67
2022/02/07 15:15:36;;;;;;;;;;;;;;;;;;5079714;28;19924;-66
2022/02/07 15:18:06;;;;;;;;;;;;;;;;;;5082000;28;19932;-67
2022/02/07 15:20:33;;;;;;;;;;;;;;;;;;5079389;28;20489;-67
2022/02/07 15:23:00;;;;;;;;;;;;;;;;;;5079372;28;19931;-67
2022/02/07 15:25:30;;;;;;;;;;;;;;;;;;5086041;28;19939;-67
2022/02/07 15:27:57;;;;;;;;;;;;;;;;;;5088487;28;20031;-67
2022/02/07 15:30:25;;;;;;;;;;;;;;;;;;5085212;28;19928;-67
2022/02/07 15:32:54;;;;;;;;;;;;;;;;;;5085952;28;19928;-67
2022/02/07 15:35:21;;;;;;;;;;;;;;;;;;5087626;28;20401;-67
2022/02/07 15:37:48;;;;;;;;;;;;;;;;;;5085543;28;20840;-66
2022/02/07 15:40:15;;;;;;;;;;;;;;;;;;5086751;28;19928;-67
2022/02/07 15:42:45;;;;;;;;;;;;;;;;;;5087199;28;19924;-67
2022/02/07 15:45:12;;;;;;;;;;;;;;;;;;5082347;28;19931;-67
2022/02/07 15:47:43;;;;;;;;;;;;;;;;;;5085362;28;20439;-68
2022/02/07 15:50:11;;;;;;;;;;;;;;;;;;5088353;28;19932;-66
2022/02/07 15:52:38;;;;;;;;;;;;;;;;;;5083935;28;20361;-66
2022/02/07 15:55:05;;;;;;;;;;;;;;;;;;5083966;28;19928;-66
2022/02/07 15:57:32;;;;;;;;;;;;;;;;;;5084475;28;20018;-67
2022/02/07 15:59:59;;;;;;;;;;;;;;;;;;5082902;28;19928;-66
2022/02/07 16:02:31;;;;;;;;;;;;;;;;;;5082311;28;19932;-66
2022/02/07 16:04:59;;;;;;;;;;;;;;;;;;5083427;28;19931;-67
2022/02/07 16:07:30;;;;;;;;;;;;;;;;;;5081268;28;19924;-68
2022/02/07 16:09:57;;;;;;;;;;;;;;;;;;5083871;28;19924;-67
2022/02/07 16:12:27;;;;;;;;;;;;;;;;;;5072645;28;20042;-68
2022/02/07 16:14:54;;;;;;;;;;;;;;;;;;5080792;28;19924;-69
2022/02/07 16:17:21;;;;;;;;;;;;;;;;;;5087481;28;19932;-69
2022/02/07 16:19:48;;;;;;;;;;;;;;;;;;5088939;28;20073;-68
2022/02/07 16:22:15;;;;;;;;;;;;;;;;;;5086760;28;19932;-66
2022/02/07 16:24:45;;;;;;;;;;;;;;;;;;5081090;28;19930;-68
2022/02/07 16:27:12;;;;;;;;;;;;;;;;;;5085513;28;19924;-67
2022/02/07 16:29:41;;;;;;;;;;;;;;;;;;5082486;28;19931;-67
2022/02/07 16:32:08;;;;;;;;;;;;;;;;;;5086086;28;20353;-67
2022/02/07 16:34:35;;;;;;;;;;;;;;;;;;5086418;28;20343;-68
2022/02/07 16:37:02;;;;;;;;;;;;;;;;;;5084076;28;19924;-66
2022/02/07 16:39:29;;;;;;;;;;;;;;;;;;5085506;28;19925;-67
2022/02/07 16:41:56;;;;;;;;;;;;;;;;;;5086451;28;20296;-66
2022/02/07 16:44:24;;;;;;;;;;;;;;;;;;5084467;28;19924;-66
2022/02/07 16:46:52;;;;;;;;;;;;;;;;;;5086673;28;19978;-67
2022/02/07 16:49:19;;;;;;;;;;;;;;;;;;5086564;28;19995;-67
2022/02/07 16:51:46;;;;;;;;;;;;;;;;;;5088552;28;19924;-67
2022/02/07 16:54:13;;;;;;;;;;;;;;;;;;5086662;28;20381;-67
2022/02/07 16:56:40;;;;;;;;;;;;;;;;;;5086791;28;20390;-67
2022/02/07 16:59:07;;;;;;;;;;;;;;;;;;5085964;28;19935;-66
2022/02/07 17:01:34;;;;;;;;;;;;;;;;;;5086841;28;19928;-67
2022/02/07 17:04:11;;;;;;;;;;;;;;;;;;5082135;28;20014;-67
2022/02/07 17:09:25;;;;;;;;;;;;;;;;;;5075554;28;19920;-68
2022/02/07 17:14:42;;;;;;;;;;;;;;;;;;5080334;28;19935;-65
2022/02/07 17:17:09;;;;;;;;;;;;;;;;;;5088005;28;20309;-68
2022/02/07 17:19:39;;;;;;;;;;;;;;;;;;5086955;28;20014;-68
2022/02/07 17:22:07;;;;;;;;;;;;;;;;;;5083194;28;19924;-68
2022/02/07 17:24:37;;;;;;;;;;;;;;;;;;5087022;28;19930;-68
2022/02/07 17:27:04;;;;;;;;;;;;;;;;;;5086788;28;19928;-68
2022/02/07 17:29:31;;;;;;;;;;;;;;;;;;5079908;28;19944;-66
2022/02/07 17:32:06;;;;;;;;;;;;;;;;;;5087810;28;19932;-66
2022/02/07 17:34:33;;;;;;;;;;;;;;;;;;5085445;28;19931;-66
2022/02/07 17:37:00;;;;;;;;;;;;;;;;;;5085307;28;19924;-67
2022/02/07 17:39:30;;;;;;;;;;;;;;;;;;5081912;28;19924;-71
2022/02/07 17:41:57;;;;;;;;;;;;;;;;;;5086500;28;19930;-67
2022/02/07 17:44:36;;;;;;;;;;;;;;;;;;5083037;28;19931;-68
2022/02/07 17:47:03;;;;;;;;;;;;;;;;;;5078672;28;20009;-68
2022/02/07 17:49:33;;;;;;;;;;;;;;;;;;5081277;28;20305;-66
2022/02/07 17:52:03;;;;;;;;;;;;;;;;;;5082506;28;19924;-66
2022/02/07 17:54:31;;;;;;;;;;;;;;;;;;5085030;28;19979;-67
2022/02/07 17:56:58;;;;;;;;;;;;;;;;;;5086304;28;20002;-66
2022/02/07 17:59:28;;;;;;;;;;;;;;;;;;5082742;28;19935;-67
2022/02/07 18:01:56;;;;;;;;;;;;;;;;;;5085779;28;19928;-67
2022/02/07 18:04:22;;;;;;;;;;;;;;;;;;5085943;28;19924;-67
2022/02/07 18:06:50;;;;;;;;;;;;;;;;;;5083370;28;19928;-68
2022/02/07 18:09:16;;;;;;;;;;;;;;;;;;5081161;28;19978;-68
2022/02/07 18:11:43;;;;;;;;;;;;;;;;;;5082569;28;20022;-66
2022/02/07 18:14:10;;;;;;;;;;;;;;;;;;5085516;28;20269;-66
2022/02/07 18:16:40;;;;;;;;;;;;;;;;;;5084212;28;19959;-66
2022/02/07 18:19:14;;;;;;;;;;;;;;;;;;5085006;28;20408;-67
2022/02/07 18:21:41;;;;;;;;;;;;;;;;;;5085508;28;20309;-67
2022/02/07 18:24:32;;;;;;;;;;;;;;;;;;5082297;28;19930;-68
2022/02/07 18:29:40;;;;;;;;;;;;;;;;;;5074356;28;20304;-67
2022/02/07 18:32:15;;;;;;;;;;;;;;;;;;5082560;28;19932;-67
2022/02/07 18:34:42;;;;;;;;;;;;;;;;;;5083143;28;19975;-67